Time;durP1;ratioP1;P1;durP2;ratioP2;P2;SDS_P1;SDS_P2;PMS_P1;PMS_P2;Temp;Humidity;BMP_temperature;BMP_pressure;BME280_temperature;BME280_humidity;BME280_pressure;Samples;Min_cycle;Max_cycle;Signal;HPM_P1;HPM_P2
2023/04/24 00:01:39;;;;;;;;;;;;;;;9.86;70.28;99312.97;5085101;28;3851;-88
2023/04/24 00:04:06;;;;;;;;;;;;;;;9.82;70.26;99314.50;5084560;28;1641;-86
2023/04/24 00:06:33;;;;;;;;;;;;;;;9.80;70.26;99320.13;5085139;28;1699;-85
2023/04/24 00:09:00;;;;;;;;;;;;;;;9.81;70.16;99323.63;5066336;28;1967;-85
2023/04/24 00:11:27;;;;;;;;;;;;;;;9.86;70.02;99318.34;5086581;28;1061;-86
2023/04/24 00:13:54;;;;;;;;;;;;;;;9.81;70.25;99329.00;5067617;28;4002;-86
2023/04/24 00:16:20;;;;;;;;;;;;;;;9.78;70.27;99324.91;5072270;28;1863;-86
2023/04/24 00:18:47;;;;;;;;;;;;;;;9.79;70.18;99329.22;5063570;28;5217;-86
2023/04/24 00:21:14;;;;;;;;;;;;;;;9.81;70.07;99320.94;5067199;28;1327;-86
2023/04/24 00:23:41;;;;;;;;;;;;;;;9.79;70.12;99318.47;5065526;28;4990;-84
2023/04/24 00:26:07;;;;;;;;;;;;;;;9.82;70.06;99325.25;5085614;28;1042;-87
2023/04/24 00:28:34;;;;;;;;;;;;;;;9.77;70.09;99323.31;5064580;28;2032;-85
2023/04/24 00:31:01;;;;;;;;;;;;;;;9.75;70.23;99325.41;5084458;28;1527;-85
2023/04/24 00:33:28;;;;;;;;;;;;;;;9.73;70.20;99327.53;5085549;28;971;-86
2023/04/24 00:35:54;;;;;;;;;;;;;;;9.76;70.24;99332.41;5065427;28;1401;-85
2023/04/24 00:38:21;;;;;;;;;;;;;;;9.75;70.08;99326.22;5085614;28;1117;-86
2023/04/24 00:40:49;;;;;;;;;;;;;;;9.74;70.09;99327.28;5084869;28;2055;-86
2023/04/24 00:43:16;;;;;;;;;;;;;;;9.74;70.05;99321.09;5065477;28;1992;-85
2023/04/24 00:45:42;;;;;;;;;;;;;;;9.74;70.12;99323.78;5083728;28;1621;-86
2023/04/24 00:48:09;;;;;;;;;;;;;;;9.74;70.08;99318.41;5065282;28;1985;-85
2023/04/24 00:50:36;;;;;;;;;;;;;;;9.73;70.19;99322.94;5066195;28;1334;-86
2023/04/24 00:53:02;;;;;;;;;;;;;;;9.73;70.15;99322.94;5064866;28;2107;-85
2023/04/24 00:55:29;;;;;;;;;;;;;;;9.73;70.07;99317.56;5072315;28;4504;-85
2023/04/24 00:57:55;;;;;;;;;;;;;;;9.74;69.87;99308.47;5082215;28;4376;-86
2023/04/24 01:00:22;;;;;;;;;;;;;;;9.72;70.04;99313.25;5066620;28;1544;-86
2023/04/24 01:02:49;;;;;;;;;;;;;;;9.68;70.25;99308.63;5067553;28;1337;-86
2023/04/24 01:05:18;;;;;;;;;;;;;;;9.68;70.26;99312.13;5072739;28;1315;-86
2023/04/24 01:07:45;;;;;;;;;;;;;;;9.66;70.31;99311.56;5081763;28;2062;-85
2023/04/24 01:10:11;;;;;;;;;;;;;;;9.67;70.13;99315.06;5084484;28;999;-86
2023/04/24 01:12:38;;;;;;;;;;;;;;;9.70;69.87;99314.56;5083221;28;2135;-86
2023/04/24 01:15:05;;;;;;;;;;;;;;;9.68;70.10;99314.00;5084952;28;4077;-86
2023/04/24 01:17:32;;;;;;;;;;;;;;;9.71;70.01;99317.03;5065856;28;1456;-86
2023/04/24 01:19:59;;;;;;;;;;;;;;;9.71;69.83;99318.91;5066762;28;1338;-86
2023/04/24 01:22:26;;;;;;;;;;;;;;;9.68;70.05;99314.00;5064627;28;1538;-86
2023/04/24 01:24:52;;;;;;;;;;;;;;;9.65;69.99;99307.25;5084078;28;1161;-84
2023/04/24 01:27:19;;;;;;;;;;;;;;;9.71;69.95;99310.84;5080278;28;2060;-86
2023/04/24 01:29:47;;;;;;;;;;;;;;;9.63;70.27;99312.03;5084975;28;1914;-86
2023/04/24 01:32:14;;;;;;;;;;;;;;;9.69;69.95;99308.38;5081555;28;1554;-86
2023/04/24 01:34:40;;;;;;;;;;;;;;;9.64;70.15;99308.28;5084969;28;1534;-86
2023/04/24 01:37:07;;;;;;;;;;;;;;;9.68;69.90;99301.38;5084888;28;1069;-86
2023/04/24 01:39:36;;;;;;;;;;;;;;;9.68;69.74;99295.19;5083827;28;915;-87
2023/04/24 01:42:03;;;;;;;;;;;;;;;9.62;70.12;99293.47;5063952;28;1988;-86
2023/04/24 01:44:30;;;;;;;;;;;;;;;9.60;70.06;99303.66;5084739;28;1515;-86
2023/04/24 01:46:56;;;;;;;;;;;;;;;9.59;70.23;99300.16;5082626;28;1577;-85
2023/04/24 01:49:23;;;;;;;;;;;;;;;9.62;70.01;99302.38;5059811;28;1979;-85
2023/04/24 01:51:49;;;;;;;;;;;;;;;9.62;70.00;99293.47;5084206;28;879;-86
2023/04/24 01:54:16;;;;;;;;;;;;;;;9.67;69.67;99290.84;5064750;28;1558;-85
2023/04/24 01:56:43;;;;;;;;;;;;;;;9.61;70.04;99294.53;5070624;28;2097;-85
2023/04/24 01:59:10;;;;;;;;;;;;;;;9.58;70.16;99295.81;5085025;28;1026;-85
2023/04/24 02:01:36;;;;;;;;;;;;;;;9.57;70.14;99296.09;5081311;28;4945;-86
2023/04/24 02:04:03;;;;;;;;;;;;;;;9.57;70.05;99291.50;5082150;28;5151;-85
2023/04/24 02:06:31;;;;;;;;;;;;;;;9.57;70.23;99293.41;5085423;28;2030;-86
2023/04/24 02:08:58;;;;;;;;;;;;;;;9.59;70.02;99280.50;5087124;28;4168;-84
2023/04/24 02:11:24;;;;;;;;;;;;;;;9.57;69.95;99280.75;5083769;28;2109;-85
2023/04/24 02:13:51;;;;;;;;;;;;;;;9.53;70.29;99283.13;5068470;28;2177;-84
2023/04/24 02:16:17;;;;;;;;;;;;;;;9.55;70.11;99275.63;5087105;28;1647;-85
2023/04/24 02:18:44;;;;;;;;;;;;;;;9.63;69.86;99276.28;5067168;28;1240;-85
2023/04/24 02:21:10;;;;;;;;;;;;;;;9.58;69.83;99274.31;5065531;28;3880;-85
2023/04/24 02:23:37;;;;;;;;;;;;;;;9.53;69.96;99271.56;5068990;28;1409;-84
2023/04/24 02:26:03;;;;;;;;;;;;;;;9.50;70.03;99277.41;5075795;28;1980;-83
2023/04/24 02:28:30;;;;;;;;;;;;;;;9.50;70.08;99272.03;5088123;28;1977;-84
2023/04/24 02:30:57;;;;;;;;;;;;;;;9.51;69.84;99276.38;5085911;28;2154;-83
2023/04/24 02:33:23;;;;;;;;;;;;;;;9.50;70.18;99278.25;5086468;28;1737;-84
2023/04/24 02:35:50;;;;;;;;;;;;;;;9.51;70.02;99273.69;5084525;28;1180;-83
2023/04/24 02:38:16;;;;;;;;;;;;;;;9.50;70.09;99274.72;5075500;28;1426;-84
2023/04/24 02:40:43;;;;;;;;;;;;;;;9.51;70.02;99274.50;5067466;28;2326;-84
2023/04/24 02:43:09;;;;;;;;;;;;;;;9.49;69.98;99273.09;5067534;28;1209;-84
2023/04/24 02:45:37;;;;;;;;;;;;;;;9.50;69.92;99272.03;5085038;28;1628;-84
2023/04/24 02:48:04;;;;;;;;;;;;;;;9.56;69.77;99268.41;5074059;28;5095;-83
2023/04/24 02:50:31;;;;;;;;;;;;;;;9.50;69.90;99270.19;5086177;28;4977;-84
2023/04/24 02:52:58;;;;;;;;;;;;;;;9.49;69.86;99281.16;5067569;28;1844;-84
2023/04/24 02:55:24;;;;;;;;;;;;;;;9.45;70.11;99272.78;5068403;28;4044;-83
2023/04/24 02:57:51;;;;;;;;;;;;;;;9.44;69.89;99271.16;5068607;28;1252;-84
2023/04/24 03:00:18;;;;;;;;;;;;;;;9.47;69.90;99277.91;5083052;28;1651;-84
2023/04/24 03:02:44;;;;;;;;;;;;;;;9.47;70.05;99276.03;5077973;28;2055;-80
2023/04/24 03:05:11;;;;;;;;;;;;;;;9.45;69.97;99282.72;5072681;28;5172;-81
2023/04/24 03:07:38;;;;;;;;;;;;;;;9.43;69.99;99291.00;5060276;28;4621;-80
2023/04/24 03:10:04;;;;;;;;;;;;;;;9.43;70.04;99280.25;5060223;28;3888;-80
2023/04/24 03:12:31;;;;;;;;;;;;;;;9.44;70.11;99281.06;5077767;28;1568;-79
2023/04/24 03:14:58;;;;;;;;;;;;;;;9.42;70.01;99278.63;5071661;28;1938;-79
2023/04/24 03:17:24;;;;;;;;;;;;;;;9.43;69.89;99272.19;5074129;28;1676;-77
2023/04/24 03:19:51;;;;;;;;;;;;;;;9.44;70.02;99278.38;5072181;28;1850;-78
2023/04/24 03:22:17;;;;;;;;;;;;;;;9.43;70.02;99279.44;5081524;28;4516;-78
2023/04/24 03:24:44;;;;;;;;;;;;;;;9.39;69.99;99278.31;5072017;28;2072;-78
2023/04/24 03:27:10;;;;;;;;;;;;;;;9.43;69.79;99272.19;5072117;28;1803;-79
2023/04/24 03:29:37;;;;;;;;;;;;;;;9.39;70.12;99281.81;5069517;28;1976;-78
2023/04/24 03:32:03;;;;;;;;;;;;;;;9.39;69.86;99279.13;5074480;28;1690;-80
2023/04/24 03:34:30;;;;;;;;;;;;;;;9.37;70.19;99278.53;5072652;28;1757;-79
2023/04/24 03:36:56;;;;;;;;;;;;;;;9.36;70.00;99276.94;5072953;28;1636;-79
2023/04/24 03:39:25;;;;;;;;;;;;;;;9.34;70.07;99270.97;5079499;28;1615;-79
2023/04/24 03:41:51;;;;;;;;;;;;;;;9.36;69.89;99262.69;5075250;28;1707;-79
2023/04/24 03:44:18;;;;;;;;;;;;;;;9.34;70.04;99262.91;5073928;28;1644;-80
2023/04/24 03:46:44;;;;;;;;;;;;;;;9.35;70.08;99258.34;5074295;28;1943;-81
2023/04/24 03:49:11;;;;;;;;;;;;;;;9.35;70.20;99259.16;5055694;28;1953;-82
2023/04/24 03:51:37;;;;;;;;;;;;;;;9.34;70.02;99262.91;5075570;28;2057;-81
2023/04/24 03:54:04;;;;;;;;;;;;;;;9.35;69.90;99272.59;5078650;28;1683;-80
2023/04/24 03:56:30;;;;;;;;;;;;;;;9.33;70.11;99262.09;5072126;28;1774;-82
2023/04/24 03:58:59;;;;;;;;;;;;;;;9.31;70.00;99263.41;5078000;28;1691;-80
2023/04/24 04:01:26;;;;;;;;;;;;;;;9.33;69.91;99261.28;5074344;28;1612;-81
2023/04/24 04:03:52;;;;;;;;;;;;;;;9.34;70.04;99265.59;5062462;28;1680;-81
2023/04/24 04:06:19;;;;;;;;;;;;;;;9.33;69.93;99261.28;5054297;28;1595;-81
2023/04/24 04:08:45;;;;;;;;;;;;;;;9.33;69.85;99261.28;5078631;28;2017;-82
2023/04/24 04:11:12;;;;;;;;;;;;;;;9.31;70.01;99250.78;5072959;28;2065;-82
2023/04/24 04:13:39;;;;;;;;;;;;;;;9.36;69.69;99260.00;5072042;28;5103;-82
2023/04/24 04:16:05;;;;;;;;;;;;;;;9.33;69.81;99259.41;5073649;28;4389;-82
2023/04/24 04:18:32;;;;;;;;;;;;;;;9.30;70.01;99251.03;5079899;28;3623;-82
2023/04/24 04:20:58;;;;;;;;;;;;;;;9.28;70.22;99253.13;5072751;28;1712;-82
2023/04/24 04:23:25;;;;;;;;;;;;;;;9.28;70.05;99251.25;5072646;28;2026;-83
2023/04/24 04:25:52;;;;;;;;;;;;;;;9.26;70.03;99242.63;5073982;28;2006;-83
2023/04/24 04:28:19;;;;;;;;;;;;;;;9.27;69.99;99235.41;5057550;28;1676;-82
2023/04/24 04:30:46;;;;;;;;;;;;;;;9.28;69.96;99245.06;5056057;28;3846;-83
2023/04/24 04:33:14;;;;;;;;;;;;;;;9.27;69.82;99235.41;5052958;28;2113;-83
2023/04/24 04:35:41;;;;;;;;;;;;;;;9.28;69.97;99237.81;5072931;28;1714;-82
2023/04/24 04:38:08;;;;;;;;;;;;;;;9.27;69.83;99240.75;5073140;28;1597;-82
2023/04/24 04:40:34;;;;;;;;;;;;;;;9.27;70.05;99246.13;5070376;28;2046;-82
2023/04/24 04:43:01;;;;;;;;;;;;;;;9.24;69.92;99235.88;5080162;28;1635;-84
2023/04/24 04:45:28;;;;;;;;;;;;;;;9.24;69.87;99238.56;5075819;28;1632;-83
2023/04/24 04:47:55;;;;;;;;;;;;;;;9.23;70.03;99237.72;5072148;28;1997;-83
2023/04/24 04:50:22;;;;;;;;;;;;;;;9.25;69.89;99248.25;5072998;28;1906;-82
2023/04/24 04:52:49;;;;;;;;;;;;;;;9.25;69.94;99245.56;5073462;28;1685;-84
2023/04/24 04:55:16;;;;;;;;;;;;;;;9.23;69.71;99245.78;5078250;28;1931;-83
2023/04/24 04:57:42;;;;;;;;;;;;;;;9.29;69.68;99244.00;5080483;28;1573;-83
2023/04/24 05:00:10;;;;;;;;;;;;;;;9.23;69.86;99245.78;5079015;28;1780;-83
2023/04/24 05:02:37;;;;;;;;;;;;;;;9.21;69.76;99250.59;5065548;28;1390;-84
2023/04/24 05:05:04;;;;;;;;;;;;;;;9.21;70.04;99247.13;5085170;28;1607;-84
2023/04/24 05:07:30;;;;;;;;;;;;;;;9.23;69.97;99245.78;5083824;28;1581;-83
2023/04/24 05:09:57;;;;;;;;;;;;;;;9.20;69.65;99251.66;5064385;28;2083;-85
2023/04/24 05:12:24;;;;;;;;;;;;;;;9.21;69.69;99247.13;5063883;28;2071;-84
2023/04/24 05:14:50;;;;;;;;;;;;;;;9.18;69.97;99251.09;5062781;28;1544;-84
2023/04/24 05:17:17;;;;;;;;;;;;;;;9.18;69.85;99248.41;5062745;28;4719;-84
2023/04/24 05:19:43;;;;;;;;;;;;;;;9.17;69.88;99246.75;5062464;28;5131;-84
2023/04/24 05:22:11;;;;;;;;;;;;;;;9.18;69.97;99243.03;5081309;28;1887;-83
2023/04/24 05:24:38;;;;;;;;;;;;;;;9.23;69.64;99244.97;5083930;28;4125;-84
2023/04/24 05:27:05;;;;;;;;;;;;;;;9.20;69.77;99240.09;5083842;28;1986;-84
2023/04/24 05:29:32;;;;;;;;;;;;;;;9.17;69.69;99241.38;5065293;28;1906;-83
2023/04/24 05:31:59;;;;;;;;;;;;;;;9.15;70.03;99246.22;5081959;28;1586;-83
2023/04/24 05:34:26;;;;;;;;;;;;;;;9.16;69.67;99239.75;5078538;28;2146;-82
2023/04/24 05:36:53;;;;;;;;;;;;;;;9.16;69.69;99247.81;5053468;28;3866;-84
2023/04/24 05:39:20;;;;;;;;;;;;;;;9.15;69.77;99251.56;5071228;28;2078;-83
2023/04/24 05:41:47;;;;;;;;;;;;;;;9.14;69.86;99243.75;5082171;28;2134;-83
2023/04/24 05:44:13;;;;;;;;;;;;;;;9.14;69.77;99241.06;5082985;28;1628;-84
2023/04/24 05:46:40;;;;;;;;;;;;;;;9.12;69.81;99244.00;5083437;28;1605;-84
2023/04/24 05:49:07;;;;;;;;;;;;;;;8.62;69.89;99174.91;5080979;28;2016;-83
2023/04/24 05:51:34;;;;;;;;;;;;;;;9.13;69.88;99250.19;5074031;28;1685;-84
2023/04/24 05:54:01;;;;;;;;;;;;;;;9.14;69.76;99246.44;5057428;28;2077;-84
2023/04/24 05:56:27;;;;;;;;;;;;;;;9.12;69.64;99251.22;5091996;28;1651;-84
2023/04/24 05:58:57;;;;;;;;;;;;;;;9.12;69.54;99248.53;5088596;28;1259;-84
2023/04/24 06:01:24;;;;;;;;;;;;;;;9.13;69.81;99244.81;5067852;28;1585;-84
2023/04/24 06:03:52;;;;;;;;;;;;;;;9.12;69.70;99243.16;5061979;28;1645;-84
2023/04/24 06:06:19;;;;;;;;;;;;;;;9.10;69.78;99244.22;5062998;28;1786;-85
2023/04/24 06:08:45;;;;;;;;;;;;;;;9.13;69.62;99244.81;5064294;28;1641;-84
2023/04/24 06:11:12;;;;;;;;;;;;;;;9.09;69.68;99245.31;5082025;28;1957;-84
2023/04/24 06:13:38;;;;;;;;;;;;;;;9.08;69.93;99250.91;5062054;28;1656;-83
2023/04/24 06:16:05;;;;;;;;;;;;;;;9.07;69.89;99251.97;5062221;28;1935;-83
2023/04/24 06:18:32;;;;;;;;;;;;;;;9.08;69.66;99246.34;5058763;28;1838;-84
2023/04/24 06:20:59;;;;;;;;;;;;;;;9.11;69.51;99242.34;5081245;28;5563;-83
2023/04/24 06:23:25;;;;;;;;;;;;;;;9.08;69.68;99249.03;5080426;28;5092;-83
2023/04/24 06:25:52;;;;;;;;;;;;;;;9.07;69.64;99243.91;5064343;28;1282;-85
2023/04/24 06:28:18;;;;;;;;;;;;;;;9.07;69.61;99249.28;5078437;28;5094;-84
2023/04/24 06:30:45;;;;;;;;;;;;;;;9.05;69.67;99252.19;5063872;28;1914;-82
2023/04/24 06:33:11;;;;;;;;;;;;;;;9.04;69.68;99253.25;5082843;28;1357;-83
2023/04/24 06:35:38;;;;;;;;;;;;;;;9.03;69.83;99248.97;5082653;28;1002;-81
2023/04/24 06:38:06;;;;;;;;;;;;;;;9.02;69.86;99255.38;5062175;28;1466;-82
2023/04/24 06:40:33;;;;;;;;;;;;;;;9.06;69.66;99251.16;5082860;28;5218;-83
2023/04/24 06:42:59;;;;;;;;;;;;;;;9.03;69.62;99245.44;5083587;28;1110;-83
2023/04/24 06:45:26;;;;;;;;;;;;;;;9.02;69.60;99239.25;5053294;28;5305;-84
2023/04/24 06:47:54;;;;;;;;;;;;;;;9.01;69.77;99236.81;5054598;28;5134;-83
2023/04/24 06:50:20;;;;;;;;;;;;;;;9.01;69.61;99240.31;5078747;28;1906;-84
2023/04/24 06:52:47;;;;;;;;;;;;;;;9.00;69.71;99232.47;5075985;28;1668;-84
2023/04/24 06:55:15;;;;;;;;;;;;;;;9.00;69.60;99238.69;5072984;28;1881;-83
2023/04/24 06:57:41;;;;;;;;;;;;;;;9.01;69.61;99234.94;5055813;28;1759;-83
2023/04/24 07:00:09;;;;;;;;;;;;;;;9.00;69.77;99238.69;5053151;28;4403;-84
2023/04/24 07:02:35;;;;;;;;;;;;;;;8.98;69.80;99237.31;5053589;28;2267;-83
2023/04/24 07:05:02;;;;;;;;;;;;;;;8.98;69.75;99251.53;5057160;28;4298;-85
2023/04/24 07:07:29;;;;;;;;;;;;;;;8.97;69.70;99239.19;5071368;28;2338;-84
2023/04/24 07:09:56;;;;;;;;;;;;;;;8.98;69.62;99234.63;5074291;28;1995;-86
2023/04/24 07:12:23;;;;;;;;;;;;;;;8.99;69.69;99239.72;5074670;28;2337;-82
2023/04/24 07:14:50;;;;;;;;;;;;;;;8.97;69.82;99243.72;5072752;28;2262;-84
2023/04/24 07:17:16;;;;;;;;;;;;;;;8.97;69.75;99249.91;5066590;28;5353;-83
2023/04/24 07:19:43;;;;;;;;;;;;;;;8.95;69.79;99246.66;5063080;28;5198;-82
2023/04/24 07:22:11;;;;;;;;;;;;;;;8.95;69.66;99254.72;5065114;28;4346;-82
2023/04/24 07:24:37;;;;;;;;;;;;;;;8.95;69.87;99257.41;5074509;28;2063;-83
2023/04/24 07:27:05;;;;;;;;;;;;;;;8.97;69.57;99255.28;5084827;28;3799;-81
2023/04/24 07:29:31;;;;;;;;;;;;;;;8.95;69.68;99243.97;5073460;28;5158;-83
2023/04/24 07:31:58;;;;;;;;;;;;;;;8.94;69.76;99238.81;5066972;28;2289;-82
2023/04/24 07:34:25;;;;;;;;;;;;;;;8.93;69.79;99245.25;5065177;28;4041;-82
2023/04/24 07:36:52;;;;;;;;;;;;;;;8.91;69.71;99240.13;5072259;28;5199;-81
2023/04/24 07:39:19;;;;;;;;;;;;;;;8.92;69.65;99233.72;5072661;28;2149;-83
2023/04/24 07:41:45;;;;;;;;;;;;;;;8.92;69.65;99238.25;5060436;28;1831;-82
2023/04/24 07:44:12;;;;;;;;;;;;;;;8.92;69.72;99239.06;5071757;28;1854;-82
2023/04/24 07:46:38;;;;;;;;;;;;;;;8.92;69.75;99233.72;5081870;28;1586;-82
2023/04/24 07:49:05;;;;;;;;;;;;;;;8.92;69.85;99230.22;5075201;28;1747;-82
2023/04/24 07:51:33;;;;;;;;;;;;;;;8.92;69.92;99240.94;5068336;28;1910;-84
2023/04/24 07:54:00;;;;;;;;;;;;;;;8.91;69.76;99236.63;5078693;28;2105;-83
2023/04/24 07:56:26;;;;;;;;;;;;;;;8.90;69.41;99235.00;5058583;28;1699;-82
2023/04/24 07:58:54;;;;;;;;;;;;;;;8.91;69.53;99240.13;5075695;28;1873;-82
2023/04/24 08:01:21;;;;;;;;;;;;;;;8.88;69.81;99243.28;5080056;28;1643;-82
2023/04/24 08:03:47;;;;;;;;;;;;;;;8.89;69.74;99236.06;5079513;28;1688;-81
2023/04/24 08:06:14;;;;;;;;;;;;;;;8.89;69.78;99242.25;5074049;28;1783;-81
2023/04/24 08:08:41;;;;;;;;;;;;;;;8.93;69.44;99235.31;5073587;28;1703;-80
2023/04/24 08:11:07;;;;;;;;;;;;;;;8.88;69.71;99237.91;5074664;28;4886;-80
2023/04/24 08:13:34;;;;;;;;;;;;;;;8.87;69.50;99233.59;5057402;28;4053;-79
2023/04/24 08:16:00;;;;;;;;;;;;;;;8.87;69.75;99237.09;5083141;28;4415;-80
2023/04/24 08:18:27;;;;;;;;;;;;;;;8.89;69.59;99241.44;5073789;28;1985;-77
2023/04/24 08:20:54;;;;;;;;;;;;;;;8.85;69.72;99239.22;5071312;28;1859;-79
2023/04/24 08:23:20;;;;;;;;;;;;;;;8.85;69.68;99246.44;5075915;28;1572;-78
2023/04/24 08:25:47;;;;;;;;;;;;;;;8.86;69.69;99251.59;5078921;28;2356;-78
2023/04/24 08:28:19;;;;;;;;;;;;;;;8.85;69.94;99243.75;5073144;28;4197;-79
2023/04/24 08:30:46;;;;;;;;;;;;;;;8.85;69.71;99244.59;5049254;28;4804;-80
2023/04/24 08:33:13;;;;;;;;;;;;;;;8.85;70.06;99243.75;5053819;28;1717;-78
2023/04/24 08:35:40;;;;;;;;;;;;;;;8.85;69.27;99247.28;5072669;28;3846;-78
2023/04/24 08:38:06;;;;;;;;;;;;;;;8.83;69.51;99241.34;5078269;28;1648;-79
2023/04/24 08:40:33;;;;;;;;;;;;;;;8.84;69.50;99234.91;5061266;28;2488;-81
2023/04/24 08:43:00;;;;;;;;;;;;;;;8.83;69.51;99235.16;5057486;28;2473;-80
2023/04/24 08:45:26;;;;;;;;;;;;;;;8.83;69.75;99245.88;5061766;28;1573;-81
2023/04/24 08:47:56;;;;;;;;;;;;;;;8.82;69.56;99246.94;5078945;28;3976;-81
2023/04/24 08:50:22;;;;;;;;;;;;;;;8.82;69.71;99246.94;5083169;28;1979;-80
2023/04/24 08:52:49;;;;;;;;;;;;;;;8.81;69.70;99256.03;5081269;28;2227;-81
2023/04/24 08:55:16;;;;;;;;;;;;;;;8.81;69.75;99248.81;5081337;28;2347;-79
2023/04/24 08:57:44;;;;;;;;;;;;;;;8.82;69.71;99236.19;5080884;28;1635;-78
2023/04/24 09:00:11;;;;;;;;;;;;;;;8.81;69.87;99240.75;5082035;28;1927;-79
2023/04/24 09:02:37;;;;;;;;;;;;;;;8.81;69.69;99239.94;5081012;28;2197;-78
2023/04/24 09:05:05;;;;;;;;;;;;;;;8.83;69.25;99232.47;5083509;28;1842;-78
2023/04/24 09:07:31;;;;;;;;;;;;;;;8.80;69.42;99230.25;5070729;28;2192;-79
2023/04/24 09:09:58;;;;;;;;;;;;;;;8.80;69.47;99222.22;5081438;28;2203;-79
2023/04/24 09:12:24;;;;;;;;;;;;;;;8.79;69.65;99224.06;5084356;28;2754;-79
2023/04/24 09:14:51;;;;;;;;;;;;;;;8.79;69.59;99225.94;5063204;28;2265;-81
2023/04/24 09:17:17;;;;;;;;;;;;;;;8.79;69.45;99233.97;5063630;28;2545;-78
2023/04/24 09:19:44;;;;;;;;;;;;;;;8.79;69.70;99232.09;5082878;28;1542;-80
2023/04/24 09:22:11;;;;;;;;;;;;;;;8.80;69.69;99227.56;5060727;28;4911;-78
2023/04/24 09:24:37;;;;;;;;;;;;;;;8.81;69.31;99231.88;5064319;28;2462;-79
2023/04/24 09:27:04;;;;;;;;;;;;;;;8.82;69.46;99234.34;5083101;28;2130;-78
2023/04/24 09:29:32;;;;;;;;;;;;;;;8.79;69.42;99236.66;5084590;28;1066;-79
2023/04/24 09:31:59;;;;;;;;;;;;;;;8.79;69.58;99245.53;5063793;28;2066;-77
2023/04/24 09:34:25;;;;;;;;;;;;;;;8.77;69.24;99239.59;5064286;28;2041;-77
2023/04/24 09:36:52;;;;;;;;;;;;;;;8.78;69.41;99246.59;5084263;28;957;-78
2023/04/24 09:39:19;;;;;;;;;;;;;;;8.79;69.18;99247.41;5081132;28;2137;-78
2023/04/24 09:41:46;;;;;;;;;;;;;;;8.77;69.71;99250.34;5064291;28;1309;-78
2023/04/24 09:44:13;;;;;;;;;;;;;;;8.77;69.64;99242.28;5081310;28;1327;-77
2023/04/24 09:46:39;;;;;;;;;;;;;;;8.77;69.41;99262.97;5082490;28;1933;-76
2023/04/24 09:49:07;;;;;;;;;;;;;;;8.76;69.85;99262.13;5082774;28;2567;-78
2023/04/24 09:51:33;;;;;;;;;;;;;;;8.77;69.29;99249.53;5083203;28;1982;-77
2023/04/24 09:54:00;;;;;;;;;;;;;;;8.75;69.61;99249.75;5063877;28;5422;-77
2023/04/24 09:56:27;;;;;;;;;;;;;;;8.75;69.37;99246.25;5062365;28;4245;-77
2023/04/24 09:58:53;;;;;;;;;;;;;;;8.76;69.56;99253.25;5082442;28;1222;-77
2023/04/24 10:01:20;;;;;;;;;;;;;;;8.75;69.46;99255.13;5065157;28;3932;-77
2023/04/24 10:03:46;;;;;;;;;;;;;;;8.76;69.46;99253.25;5083274;28;2087;-79
2023/04/24 10:06:13;;;;;;;;;;;;;;;8.75;69.57;99251.63;5059729;28;1558;-79
2023/04/24 10:08:40;;;;;;;;;;;;;;;8.75;69.63;99251.63;5052551;28;1929;-77
2023/04/24 10:11:07;;;;;;;;;;;;;;;8.74;69.42;99250.00;5069883;28;2001;-79
2023/04/24 10:13:33;;;;;;;;;;;;;;;8.74;69.43;99250.81;5057265;28;3773;-78
2023/04/24 10:16:00;;;;;;;;;;;;;;;8.75;69.47;99246.25;5052668;28;1670;-79
2023/04/24 10:18:26;;;;;;;;;;;;;;;8.74;69.34;99244.66;5053106;28;1821;-78
2023/04/24 10:20:54;;;;;;;;;;;;;;;8.73;69.72;99240.31;5070687;28;1636;-79
2023/04/24 10:23:21;;;;;;;;;;;;;;;8.73;69.46;99251.88;5077714;28;1605;-76
2023/04/24 10:25:49;;;;;;;;;;;;;;;8.73;69.44;99251.88;5072793;28;2025;-79
2023/04/24 10:28:16;;;;;;;;;;;;;;;8.73;69.63;99237.63;5077399;28;2015;-77
2023/04/24 10:30:42;;;;;;;;;;;;;;;8.73;69.47;99249.19;5055836;28;5494;-80
2023/04/24 10:33:09;;;;;;;;;;;;;;;8.73;69.62;99243.81;5054656;28;3950;-79
2023/04/24 10:35:35;;;;;;;;;;;;;;;8.73;69.32;99237.63;5055354;28;1872;-77
2023/04/24 10:38:02;;;;;;;;;;;;;;;8.72;69.50;99239.50;5084812;28;3875;-79
2023/04/24 10:40:29;;;;;;;;;;;;;;;8.72;69.71;99238.69;5084891;28;2169;-79
2023/04/24 10:42:55;;;;;;;;;;;;;;;8.72;69.60;99239.50;5084292;28;2156;-78
2023/04/24 10:45:22;;;;;;;;;;;;;;;8.73;69.63;99243.00;5086052;28;2020;-78
2023/04/24 10:47:48;;;;;;;;;;;;;;;8.71;69.60;99243.25;5068907;28;1311;-77
2023/04/24 10:50:15;;;;;;;;;;;;;;;8.72;69.40;99230.63;5086106;28;4165;-79
2023/04/24 10:52:42;;;;;;;;;;;;;;;8.71;69.72;99229.03;5065589;28;2041;-80
2023/04/24 10:55:08;;;;;;;;;;;;;;;8.71;69.36;99229.03;5085786;28;1999;-78
2023/04/24 10:57:35;;;;;;;;;;;;;;;8.71;69.53;99229.03;5079777;28;1653;-78
2023/04/24 11:00:01;;;;;;;;;;;;;;;8.71;69.38;99229.03;5082680;28;2025;-79
2023/04/24 11:02:28;;;;;;;;;;;;;;;8.69;69.35;99223.88;5086035;28;1980;-78
2023/04/24 11:04:54;;;;;;;;;;;;;;;8.71;69.42;99226.34;5083912;28;4957;-79
2023/04/24 11:07:21;;;;;;;;;;;;;;;8.70;69.35;99228.19;5085299;28;2300;-77
2023/04/24 11:09:47;;;;;;;;;;;;;;;8.71;69.44;99231.72;5084611;28;3952;-76
2023/04/24 11:12:14;;;;;;;;;;;;;;;8.70;69.63;99232.75;5085475;28;2022;-79
2023/04/24 11:14:40;;;;;;;;;;;;;;;8.70;69.59;99232.75;5067079;28;1307;-79
2023/04/24 11:17:07;;;;;;;;;;;;;;;8.70;69.63;99224.69;5084888;28;1537;-79
2023/04/24 11:19:33;;;;;;;;;;;;;;;8.70;69.38;99232.75;5085807;28;1960;-79
2023/04/24 11:22:01;;;;;;;;;;;;;;;8.69;69.40;99229.25;5066829;28;3225;-77
2023/04/24 11:24:27;;;;;;;;;;;;;;;8.69;69.36;99234.63;5067070;28;1658;-79
2023/04/24 11:26:54;;;;;;;;;;;;;;;8.69;69.63;99226.56;5064076;28;5152;-77
2023/04/24 11:29:21;;;;;;;;;;;;;;;8.69;69.41;99218.50;5085887;28;5092;-77
2023/04/24 11:31:49;;;;;;;;;;;;;;;8.67;69.36;99220.59;5084301;28;2157;-79
2023/04/24 11:34:16;;;;;;;;;;;;;;;8.68;69.55;99222.25;5064649;28;2568;-79
2023/04/24 11:36:42;;;;;;;;;;;;;;;8.67;69.41;99220.59;5064109;28;2026;-79
2023/04/24 11:39:10;;;;;;;;;;;;;;;8.66;69.59;99216.31;5086367;28;1781;-79
2023/04/24 11:41:36;;;;;;;;;;;;;;;8.67;69.39;99223.28;5085165;28;1975;-78
2023/04/24 11:44:03;;;;;;;;;;;;;;;8.68;69.50;99224.94;5084438;28;1894;-79
2023/04/24 11:46:31;;;;;;;;;;;;;;;8.68;69.63;99226.78;5085370;28;1506;-79
2023/04/24 11:48:57;;;;;;;;;;;;;;;8.68;69.46;99216.06;5085424;28;1010;-78
2023/04/24 11:51:25;;;;;;;;;;;;;;;8.67;69.36;99225.16;5085173;28;1948;-78
2023/04/24 11:53:51;;;;;;;;;;;;;;;8.67;69.29;99225.16;5085366;28;1893;-78
2023/04/24 11:56:18;;;;;;;;;;;;;;;8.65;69.52;99217.38;5083624;28;2143;-79
2023/04/24 11:58:45;;;;;;;;;;;;;;;8.65;69.32;99220.06;5085245;28;1173;-78
2023/04/24 12:01:12;;;;;;;;;;;;;;;8.66;69.59;99226.22;5065067;28;1977;-78
2023/04/24 12:03:39;;;;;;;;;;;;;;;8.68;69.41;99232.16;5086184;28;991;-77
2023/04/24 12:06:05;;;;;;;;;;;;;;;8.66;69.31;99221.66;5083717;28;2075;-80
2023/04/24 12:08:32;;;;;;;;;;;;;;;8.64;69.61;99221.91;5084830;28;1664;-78
2023/04/24 12:10:59;;;;;;;;;;;;;;;8.66;69.39;99231.59;5081156;28;4851;-77
2023/04/24 12:13:25;;;;;;;;;;;;;;;8.64;69.62;99229.13;5059605;28;3746;-76
2023/04/24 12:15:54;;;;;;;;;;;;;;;8.66;69.67;99229.72;5051818;28;1712;-77
2023/04/24 12:18:20;;;;;;;;;;;;;;;8.65;69.42;99222.75;5069250;28;3808;-79
2023/04/24 12:20:47;;;;;;;;;;;;;;;8.65;69.59;99220.06;5054794;28;2002;-76
2023/04/24 12:23:13;;;;;;;;;;;;;;;8.64;69.45;99218.41;5071973;28;1762;-78
2023/04/24 12:25:40;;;;;;;;;;;;;;;8.63;69.45;99220.28;5061922;28;1696;-76
2023/04/24 12:28:07;;;;;;;;;;;;;;;8.65;69.53;99222.75;5082960;28;2065;-76
2023/04/24 12:30:34;;;;;;;;;;;;;;;8.63;69.53;99217.59;5083761;28;2077;-78
2023/04/24 12:33:00;;;;;;;;;;;;;;;8.63;69.29;99222.16;5083540;28;2123;-77
2023/04/24 12:35:27;;;;;;;;;;;;;;;8.62;69.64;99210.59;5080199;28;1934;-76
2023/04/24 12:37:53;;;;;;;;;;;;;;;8.65;69.33;99217.38;5072101;28;1558;-78
2023/04/24 12:40:20;;;;;;;;;;;;;;;8.63;69.23;99212.22;5083602;28;2031;-76
2023/04/24 12:42:46;;;;;;;;;;;;;;;8.64;69.59;99216.53;5082938;28;2054;-76
2023/04/24 12:45:13;;;;;;;;;;;;;;;8.63;69.48;99211.41;5083728;28;1510;-77
2023/04/24 12:47:39;;;;;;;;;;;;;;;8.62;69.33;99201.75;5064443;28;1528;-76
2023/04/24 12:50:06;;;;;;;;;;;;;;;8.61;69.61;99202.78;5064631;28;1957;-75
2023/04/24 12:52:32;;;;;;;;;;;;;;;8.60;69.54;99198.47;5062688;28;2163;-75
2023/04/24 12:54:59;;;;;;;;;;;;;;;8.61;69.58;99194.72;5081238;28;2094;-76
2023/04/24 12:57:25;;;;;;;;;;;;;;;8.62;69.59;99196.38;5071166;28;2368;-77
2023/04/24 12:59:52;;;;;;;;;;;;;;;8.61;69.41;99190.16;5083806;28;2181;-77
2023/04/24 13:02:19;;;;;;;;;;;;;;;8.62;69.86;99199.06;5062691;28;1927;-76
2023/04/24 13:04:46;;;;;;;;;;;;;;;8.60;69.46;99209.22;5083667;28;1002;-77